createdAt,value
2023-04-09T00:02:05.626Z,10.73
2023-04-09T00:06:27.849Z,10.85
2023-04-09T00:10:51.316Z,11.68
2023-04-09T00:15:24.120Z,10.02
2023-04-09T00:19:52.952Z,11.43
2023-04-09T00:24:15.008Z,10.07
2023-04-09T00:28:37.733Z,10.98
2023-04-09T00:33:01.874Z,9.63
2023-04-09T00:37:23.977Z,10.23
2023-04-09T00:41:46.556Z,11.25
2023-04-09T00:46:08.727Z,12.35
2023-04-09T00:50:30.763Z,10.88
2023-04-09T00:54:53.258Z,13.45
2023-04-09T00:59:16.012Z,13.40
2023-04-09T01:03:38.603Z,11.20
2023-04-09T01:08:02.511Z,11.82
2023-04-09T01:12:43.423Z,10.48
2023-04-09T01:17:21.569Z,12.13
2023-04-09T01:21:45.746Z,11.27
2023-04-09T01:26:35.021Z,11.25
2023-04-09T01:31:07.759Z,10.52
2023-04-09T01:35:30.711Z,10.52
2023-04-09T01:39:52.982Z,9.02
2023-04-09T01:44:16.022Z,11.45
2023-04-09T01:48:38.225Z,11.38
2023-04-09T01:53:02.043Z,8.35
2023-04-09T01:57:24.385Z,9.48
2023-04-09T02:01:56.394Z,9.25
2023-04-09T02:06:43.129Z,7.78
2023-04-09T02:11:10.866Z,9.50
2023-04-09T02:15:36.633Z,7.55
2023-04-09T02:19:58.486Z,10.68
2023-04-09T02:24:20.642Z,10.60
2023-04-09T02:28:42.573Z,10.00
2023-04-09T02:33:04.703Z,11.30
2023-04-09T02:37:26.723Z,11.43
2023-04-09T02:41:48.883Z,11.85
2023-04-09T02:46:11.358Z,9.63
2023-04-09T02:50:33.694Z,10.00
2023-04-09T02:54:55.886Z,8.50
2023-04-09T02:59:18.205Z,8.35
2023-04-09T03:03:42.404Z,7.97
2023-04-09T03:08:07.813Z,6.85
2023-04-09T03:12:29.720Z,9.32
2023-04-09T03:16:51.827Z,7.30
2023-04-09T03:21:15.146Z,10.15
2023-04-09T03:25:42.277Z,9.23
2023-04-09T03:30:08.947Z,8.52
2023-04-09T03:34:37.647Z,6.97
2023-04-09T03:39:01.168Z,7.82
2023-04-09T03:43:27.647Z,11.45
2023-04-09T03:47:50.038Z,6.88
2023-04-09T03:52:16.428Z,8.15
2023-04-09T03:56:41.690Z,9.30
2023-04-09T04:01:07.146Z,9.63
2023-04-09T04:05:47.240Z,14.18
2023-04-09T04:10:11.544Z,9.32
2023-04-09T04:14:37.883Z,8.57
2023-04-09T04:19:10.724Z,11.25
2023-04-09T04:23:39.543Z,8.57
2023-04-09T04:28:15.063Z,8.75
2023-04-09T04:32:37.883Z,9.85
2023-04-09T04:37:04.081Z,7.32
2023-04-09T04:41:29.806Z,9.18
2023-04-09T04:46:19.386Z,9.93
2023-04-09T04:50:42.924Z,9.32
2023-04-09T04:55:05.803Z,10.52
2023-04-09T04:59:27.843Z,10.02
2023-04-09T05:04:09.684Z,10.35
2023-04-09T05:08:33.245Z,9.20
2023-04-09T05:12:56.405Z,11.70
2023-04-09T05:17:28.443Z,13.90
2023-04-09T05:21:50.988Z,12.07
2023-04-09T05:26:17.338Z,11.00
2023-04-09T05:30:48.736Z,12.30
2023-04-09T05:35:13.152Z,8.85
2023-04-09T05:39:38.725Z,10.05
2023-04-09T05:44:01.181Z,10.48
2023-04-09T05:48:24.469Z,9.23
2023-04-09T05:52:48.087Z,9.70
2023-04-09T05:57:12.369Z,9.60
2023-04-09T06:01:39.170Z,8.38
2023-04-09T06:06:01.787Z,10.02
2023-04-09T06:10:24.589Z,11.43
2023-04-09T06:14:51.289Z,11.90
2023-04-09T06:19:13.429Z,10.70
2023-04-09T06:23:36.817Z,10.02
2023-04-09T06:27:59.146Z,10.73
2023-04-09T06:32:21.217Z,11.48
2023-04-09T06:36:44.105Z,12.57
2023-04-09T06:41:08.596Z,13.32
2023-04-09T06:45:31.388Z,11.40
2023-04-09T06:49:53.327Z,12.48
2023-04-09T06:54:15.544Z,15.48
2023-04-09T06:58:37.764Z,15.32
2023-04-09T07:03:00.224Z,11.50
2023-04-09T07:07:24.287Z,13.68
2023-04-09T07:11:47.728Z,13.88
2023-04-09T07:16:10.020Z,16.08
2023-04-09T07:20:32.254Z,37.17
2023-04-09T07:24:55.128Z,37.55
2023-04-09T07:29:17.467Z,18.55
2023-04-09T07:33:39.472Z,11.75
2023-04-09T07:38:01.689Z,11.32
2023-04-09T07:42:23.796Z,10.52
2023-04-09T07:46:46.020Z,10.10
2023-04-09T07:51:07.898Z,10.45
2023-04-09T07:55:30.105Z,9.75
2023-04-09T07:59:53.742Z,14.50
2023-04-09T08:04:16.510Z,14.45
2023-04-09T08:08:39.005Z,14.10
2023-04-09T08:13:00.837Z,13.15
2023-04-09T08:17:23.538Z,13.55
2023-04-09T08:21:46.340Z,13.02
2023-04-09T08:26:08.670Z,13.50
2023-04-09T08:30:31.098Z,12.98
2023-04-09T08:34:52.965Z,13.43
2023-04-09T08:39:20.428Z,14.00
2023-04-09T08:43:57.156Z,13.35
2023-04-09T08:48:22.182Z,13.15
2023-04-09T08:52:50.516Z,13.52
2023-04-09T08:57:12.794Z,12.45
2023-04-09T09:01:34.832Z,13.15
2023-04-09T09:05:56.827Z,13.35
2023-04-09T09:10:18.941Z,12.68
2023-04-09T09:14:40.822Z,12.68
2023-04-09T09:19:03.635Z,13.23
2023-04-09T09:23:36.906Z,13.27
2023-04-09T09:28:12.596Z,12.70
2023-04-09T09:32:35.005Z,12.75
2023-04-09T09:36:57.249Z,13.32
2023-04-09T09:41:19.794Z,12.55
2023-04-09T09:45:43.735Z,12.40
2023-04-09T09:50:06.765Z,12.75
2023-04-09T09:54:40.131Z,10.25
2023-04-09T09:59:06.493Z,10.07
2023-04-09T10:03:32.426Z,10.68
2023-04-09T10:08:00.090Z,10.85
2023-04-09T10:12:26.142Z,10.30
2023-04-09T10:16:48.381Z,12.77
2023-04-09T10:21:17.898Z,13.52
2023-04-09T10:25:41.672Z,13.73
2023-04-09T10:30:05.511Z,13.57
2023-04-09T10:34:28.843Z,12.27
2023-04-09T10:38:51.785Z,13.32
2023-04-09T10:43:15.225Z,11.73
2023-04-09T10:47:40.220Z,11.77
2023-04-09T10:52:12.238Z,11.02
2023-04-09T10:56:34.817Z,10.55
2023-04-09T11:01:02.725Z,11.43
2023-04-09T11:05:36.681Z,11.65
2023-04-09T11:09:58.788Z,11.60
2023-04-09T11:14:21.845Z,11.68
2023-04-09T11:18:43.692Z,12.20
2023-04-09T11:23:06.202Z,11.25
2023-04-09T11:27:28.362Z,12.35
2023-04-09T11:31:50.834Z,11.75
2023-04-09T11:36:13.057Z,11.82
2023-04-09T11:40:35.547Z,13.05
2023-04-09T11:44:58.220Z,13.27
2023-04-09T11:49:21.205Z,14.65
2023-04-09T11:53:43.360Z,13.38
2023-04-09T11:58:05.424Z,13.07
2023-04-09T12:02:30.001Z,13.13
2023-04-09T12:06:57.765Z,11.32
2023-04-09T12:11:19.525Z,10.82
2023-04-09T12:15:43.774Z,12.27
2023-04-09T12:20:08.768Z,10.90
2023-04-09T12:24:31.124Z,10.95
2023-04-09T12:28:53.407Z,13.68
2023-04-09T12:33:15.620Z,13.07
2023-04-09T12:37:38.013Z,12.63
2023-04-09T12:41:59.923Z,10.63
2023-04-09T12:46:21.887Z,12.70
2023-04-09T12:50:44.262Z,14.27
2023-04-09T12:55:09.964Z,13.85
2023-04-09T12:59:32.185Z,11.80
2023-04-09T13:03:54.298Z,13.40
2023-04-09T13:08:16.824Z,13.35
2023-04-09T13:12:38.984Z,12.75
2023-04-09T13:17:01.166Z,11.95
2023-04-09T13:21:23.265Z,13.88
2023-04-09T13:25:45.441Z,11.35
2023-04-09T13:30:08.449Z,13.63
2023-04-09T13:34:30.489Z,12.38
2023-04-09T13:38:52.605Z,13.38
2023-04-09T13:43:14.968Z,11.30
2023-04-09T13:47:38.071Z,12.43
2023-04-09T13:52:00.426Z,11.55
2023-04-09T13:56:22.410Z,11.40
2023-04-09T14:00:44.570Z,12.68
2023-04-09T14:05:07.100Z,12.25
2023-04-09T14:09:30.424Z,13.15
2023-04-09T14:13:53.311Z,13.77
2023-04-09T14:18:15.781Z,15.13
2023-04-09T14:22:37.843Z,13.52
2023-04-09T14:27:00.052Z,12.18
2023-04-09T14:31:21.912Z,13.25
2023-04-09T14:35:44.312Z,13.98
2023-04-09T14:40:08.588Z,14.38
2023-04-09T14:44:31.879Z,14.10
2023-04-09T14:48:54.362Z,14.88
2023-04-09T14:53:17.216Z,14.40
2023-04-09T14:57:42.653Z,16.00
2023-04-09T15:02:04.922Z,15.32
2023-04-09T15:06:28.208Z,16.02
2023-04-09T15:10:51.131Z,14.70
2023-04-09T15:15:14.611Z,14.55
2023-04-09T15:19:39.770Z,15.07
2023-04-09T15:24:02.657Z,14.85
2023-04-09T15:28:24.764Z,14.60
2023-04-09T15:32:47.062Z,16.40
2023-04-09T15:37:09.102Z,14.77
2023-04-09T15:41:32.505Z,13.88
2023-04-09T15:45:54.688Z,13.10
2023-04-09T15:50:16.863Z,11.55
2023-04-09T15:54:38.868Z,11.82
2023-04-09T15:59:02.314Z,13.00
2023-04-09T16:03:25.063Z,11.35
2023-04-09T16:07:49.717Z,11.77
2023-04-09T16:12:11.645Z,9.95
2023-04-09T16:16:33.575Z,7.28
2023-04-09T16:20:58.312Z,7.25
2023-04-09T16:25:20.644Z,7.10
2023-04-09T16:29:43.547Z,6.63
2023-04-09T16:34:05.991Z,5.90
2023-04-09T16:38:29.262Z,6.40
2023-04-09T16:42:51.514Z,7.05
2023-04-09T16:47:13.349Z,6.65
2023-04-09T16:51:36.005Z,8.07
2023-04-09T16:55:58.257Z,8.48
2023-04-09T17:00:21.088Z,6.65
2023-04-09T17:04:43.928Z,7.15
2023-04-09T17:09:06.639Z,7.40
2023-04-09T17:13:30.516Z,5.68
2023-04-09T17:17:53.973Z,5.68
2023-04-09T17:22:18.632Z,6.55
2023-04-09T17:26:40.589Z,6.07
2023-04-09T17:31:02.782Z,6.38
2023-04-09T17:35:25.562Z,5.57
2023-04-09T17:39:47.868Z,6.47
2023-04-09T17:44:09.793Z,6.63
2023-04-09T17:48:32.183Z,6.88
2023-04-09T17:52:54.032Z,5.50
2023-04-09T17:57:16.087Z,6.15
2023-04-09T18:01:38.116Z,5.70
2023-04-09T18:06:00.945Z,5.68
2023-04-09T18:10:23.622Z,5.72
2023-04-09T18:14:53.023Z,5.05
2023-04-09T18:19:16.743Z,4.65
2023-04-09T18:23:40.590Z,4.90
2023-04-09T18:28:02.701Z,6.32
2023-04-09T18:32:25.581Z,5.18
2023-04-09T18:36:47.584Z,5.47
2023-04-09T18:41:11.425Z,5.28
2023-04-09T18:45:33.826Z,5.70
2023-04-09T18:49:55.616Z,8.10
2023-04-09T18:54:21.144Z,5.13
2023-04-09T18:58:43.342Z,5.97
2023-04-09T19:03:07.663Z,5.80
2023-04-09T19:07:30.347Z,6.50
2023-04-09T19:11:52.590Z,6.30
2023-04-09T19:17:09.359Z,6.88
2023-04-09T19:21:31.668Z,7.57
2023-04-09T19:25:55.821Z,6.20
2023-04-09T19:30:17.854Z,6.55
2023-04-09T19:34:40.070Z,8.15
2023-04-09T19:39:01.879Z,9.20
2023-04-09T19:43:23.784Z,6.25
2023-04-09T19:47:46.064Z,9.05
2023-04-09T19:52:08.495Z,8.65
2023-04-09T19:56:33.122Z,7.72
2023-04-09T20:00:55.616Z,7.65
2023-04-09T20:05:21.071Z,7.80
2023-04-09T20:09:43.727Z,7.03
2023-04-09T20:14:05.691Z,6.95
2023-04-09T20:18:28.845Z,8.55
2023-04-09T20:22:56.504Z,7.50
2023-04-09T20:27:18.863Z,7.28
2023-04-09T20:31:40.857Z,8.45
2023-04-09T20:36:03.134Z,7.05
2023-04-09T20:40:25.604Z,7.80
2023-04-09T20:44:47.423Z,7.65
2023-04-09T20:49:09.498Z,8.63
2023-04-09T20:53:31.642Z,7.53
2023-04-09T20:57:56.617Z,8.60
2023-04-09T21:02:18.970Z,7.43
2023-04-09T21:06:41.319Z,7.68
2023-04-09T21:11:03.587Z,9.30
2023-04-09T21:15:25.422Z,7.85
2023-04-09T21:19:49.467Z,7.82
2023-04-09T21:24:11.866Z,8.30
2023-04-09T21:28:33.668Z,8.98
2023-04-09T21:32:56.043Z,8.00
2023-04-09T21:37:18.310Z,6.85
2023-04-09T21:41:40.281Z,9.43
2023-04-09T21:46:03.256Z,7.72
2023-04-09T21:50:25.133Z,9.00
2023-04-09T21:54:47.074Z,8.10
2023-04-09T21:59:09.176Z,6.93
2023-04-09T22:03:31.483Z,8.13
2023-04-09T22:07:53.633Z,6.85
2023-04-09T22:12:15.612Z,7.30
2023-04-09T22:16:37.636Z,7.63
2023-04-09T22:20:59.635Z,7.05
2023-04-09T22:25:22.527Z,7.45
2023-04-09T22:29:44.677Z,7.28
2023-04-09T22:34:19.459Z,6.97
2023-04-09T22:38:43.113Z,8.10
2023-04-09T22:43:05.912Z,8.18
2023-04-09T22:47:27.811Z,9.20
2023-04-09T22:51:49.833Z,7.38
2023-04-09T22:56:11.776Z,6.13
2023-04-09T23:00:34.130Z,8.95
2023-04-09T23:04:56.258Z,8.75
2023-04-09T23:09:18.387Z,7.93
2023-04-09T23:13:40.795Z,7.00
2023-04-09T23:18:02.728Z,9.93
2023-04-09T23:22:26.445Z,9.05
2023-04-09T23:26:48.346Z,8.20
2023-04-09T23:31:10.186Z,9.52
2023-04-09T23:35:32.039Z,8.43
2023-04-09T23:39:54.725Z,8.65
2023-04-09T23:44:16.985Z,8.18
2023-04-09T23:48:38.606Z,8.63
2023-04-09T23:53:03.812Z,9.70
2023-04-09T23:57:26.486Z,8.60
